createdAt,value
2023-04-11T00:01:49.819Z,4.33
2023-04-11T00:04:18.002Z,4.43
2023-04-11T00:06:45.209Z,4.30
2023-04-11T00:09:12.526Z,4.40
2023-04-11T00:11:39.598Z,3.83
2023-04-11T00:14:08.892Z,3.63
2023-04-11T00:16:35.975Z,3.73
2023-04-11T00:19:03.518Z,4.20
2023-04-11T00:21:30.451Z,3.90
2023-04-11T00:23:57.333Z,3.80
2023-04-11T00:26:24.358Z,3.77
2023-04-11T00:28:51.291Z,3.40
2023-04-11T00:31:18.194Z,2.97
2023-04-11T00:33:45.283Z,3.13
2023-04-11T00:36:12.302Z,3.70
2023-04-11T00:38:39.309Z,3.70
2023-04-11T00:41:06.637Z,3.13
2023-04-11T00:43:33.636Z,3.37
2023-04-11T00:46:01.146Z,3.33
2023-04-11T00:48:28.649Z,3.20
2023-04-11T00:50:56.041Z,3.67
2023-04-11T00:53:23.968Z,3.30
2023-04-11T00:55:51.572Z,3.53
2023-04-11T00:58:18.920Z,3.30
2023-04-11T01:00:49.769Z,3.50
2023-04-11T01:03:18.912Z,3.37
2023-04-11T01:05:48.105Z,3.60
2023-04-11T01:08:15.714Z,3.50
2023-04-11T01:10:42.923Z,3.50
2023-04-11T01:13:10.668Z,3.50
2023-04-11T01:15:37.741Z,3.90
2023-04-11T01:18:05.791Z,3.57
2023-04-11T01:20:33.506Z,3.63
2023-04-11T01:23:03.104Z,4.00
2023-04-11T01:25:30.406Z,3.67
2023-04-11T01:27:57.480Z,3.77
2023-04-11T01:30:24.716Z,4.93
2023-04-11T01:32:51.877Z,3.77
2023-04-11T01:35:19.263Z,4.33
2023-04-11T01:37:46.533Z,3.90
2023-04-11T01:40:19.468Z,3.77
2023-04-11T01:42:47.637Z,3.47
2023-04-11T01:45:15.271Z,4.07
2023-04-11T01:47:42.351Z,4.53
2023-04-11T01:50:09.711Z,4.70
2023-04-11T01:52:36.653Z,4.50
2023-04-11T01:55:04.235Z,3.80
2023-04-11T01:57:31.314Z,4.70
2023-04-11T01:59:58.394Z,5.13
2023-04-11T02:02:26.216Z,4.37
2023-04-11T02:04:53.125Z,3.80
2023-04-11T02:07:21.043Z,4.07
2023-04-11T02:09:47.927Z,4.17
2023-04-11T02:12:15.168Z,4.03
2023-04-11T02:14:46.220Z,4.10
2023-04-11T02:17:14.364Z,5.13
2023-04-11T02:19:41.802Z,5.47
2023-04-11T02:22:09.363Z,5.17
2023-04-11T02:24:44.058Z,4.90
2023-04-11T02:27:11.341Z,5.50
2023-04-11T02:29:38.583Z,5.03
2023-04-11T02:32:05.755Z,5.13
2023-04-11T02:34:32.768Z,5.40
2023-04-11T02:36:59.724Z,4.67
2023-04-11T02:39:27.063Z,5.10
2023-04-11T02:41:55.876Z,5.33
2023-04-11T02:44:23.004Z,4.63
2023-04-11T02:46:50.921Z,5.00
2023-04-11T02:49:17.918Z,5.03
2023-04-11T02:51:47.658Z,5.00
2023-04-11T02:54:14.477Z,5.27
2023-04-11T02:56:41.784Z,4.43
2023-04-11T02:59:08.900Z,5.30
2023-04-11T03:01:37.777Z,4.80
2023-04-11T03:04:05.690Z,4.37
2023-04-11T03:06:43.924Z,4.43
2023-04-11T03:09:11.806Z,4.40
2023-04-11T03:11:38.785Z,4.30
2023-04-11T03:14:06.028Z,4.37
2023-04-11T03:16:33.153Z,4.10
2023-04-11T03:19:00.558Z,4.03
2023-04-11T03:21:27.885Z,4.17
2023-04-11T03:23:55.104Z,4.17
2023-04-11T03:26:21.982Z,3.97
2023-04-11T03:28:49.453Z,3.80
2023-04-11T03:31:19.224Z,3.70
2023-04-11T03:33:47.242Z,3.50
2023-04-11T03:36:14.724Z,3.60
2023-04-11T03:38:42.075Z,3.50
2023-04-11T03:41:09.098Z,3.50
2023-04-11T03:43:36.225Z,3.50
2023-04-11T03:46:03.985Z,3.13
2023-04-11T03:48:38.206Z,3.30
2023-04-11T03:51:08.382Z,3.17
2023-04-11T03:54:01.747Z,3.00
2023-04-11T03:56:36.022Z,3.20
2023-04-11T03:59:03.434Z,2.83
2023-04-11T04:01:41.144Z,2.90
2023-04-11T04:04:08.685Z,3.07
2023-04-11T04:06:38.995Z,3.27
2023-04-11T04:09:07.176Z,3.10
2023-04-11T04:11:46.380Z,3.17
2023-04-11T04:14:14.322Z,4.00
2023-04-11T04:16:41.461Z,3.50
2023-04-11T04:19:08.978Z,3.10
2023-04-11T04:21:38.122Z,2.80
2023-04-11T04:24:06.313Z,2.93
2023-04-11T04:27:01.145Z,2.57
2023-04-11T04:29:49.124Z,2.80
2023-04-11T04:32:28.940Z,2.70
2023-04-11T04:35:01.594Z,2.60
2023-04-11T04:37:34.372Z,2.60
2023-04-11T04:40:13.234Z,2.30
2023-04-11T04:43:02.380Z,2.63
2023-04-11T04:45:45.674Z,2.40
2023-04-11T04:48:17.948Z,2.10
2023-04-11T04:50:45.782Z,2.33
2023-04-11T04:53:13.353Z,2.53
2023-04-11T04:55:46.601Z,2.50
2023-04-11T04:58:14.673Z,2.53
2023-04-11T05:00:41.817Z,2.33
2023-04-11T05:03:20.990Z,2.43
2023-04-11T05:05:49.812Z,2.03
2023-04-11T05:08:19.482Z,2.13
2023-04-11T05:10:46.718Z,2.20
2023-04-11T05:13:14.677Z,2.07
2023-04-11T05:15:48.320Z,1.83
2023-04-11T05:18:15.787Z,2.10
2023-04-11T05:20:43.411Z,2.10
2023-04-11T05:23:14.408Z,1.93
2023-04-11T05:25:41.768Z,1.90
2023-04-11T05:28:12.692Z,1.87
2023-04-11T05:30:39.716Z,1.90
2023-04-11T05:33:06.781Z,2.10
2023-04-11T05:35:33.945Z,1.87
2023-04-11T05:38:00.856Z,2.27
2023-04-11T05:40:27.940Z,2.23
2023-04-11T05:42:54.767Z,2.10
2023-04-11T05:45:22.479Z,1.80
2023-04-11T05:47:49.576Z,2.00
2023-04-11T05:50:16.581Z,2.00
2023-04-11T05:52:43.652Z,1.80
2023-04-11T05:55:11.226Z,2.10
2023-04-11T05:57:38.206Z,1.90
2023-04-11T06:00:13.577Z,1.40
2023-04-11T06:02:44.266Z,1.87
2023-04-11T06:05:12.241Z,1.50
2023-04-11T06:07:40.363Z,1.50
2023-04-11T06:10:08.315Z,1.60
2023-04-11T06:12:35.889Z,1.40
2023-04-11T06:15:03.964Z,1.60
2023-04-11T06:17:31.217Z,1.50
2023-04-11T06:19:58.280Z,1.40
2023-04-11T06:22:25.225Z,1.43
2023-04-11T06:24:52.199Z,1.50
2023-04-11T06:27:19.122Z,1.50
2023-04-11T06:29:46.475Z,1.33
2023-04-11T06:32:13.369Z,1.67
2023-04-11T06:34:40.360Z,1.57
2023-04-11T06:37:08.252Z,1.47
2023-04-11T06:39:35.776Z,1.10
2023-04-11T06:42:03.121Z,1.40
2023-04-11T06:44:32.331Z,1.40
2023-04-11T06:46:59.544Z,1.37
2023-04-11T06:49:27.299Z,1.27
2023-04-11T06:51:55.885Z,1.10
2023-04-11T06:54:23.073Z,1.20
2023-04-11T06:56:52.745Z,1.10
2023-04-11T06:59:20.608Z,1.10
2023-04-11T07:01:48.827Z,1.27
2023-04-11T07:04:16.453Z,1.00
2023-04-11T07:06:43.577Z,1.17
2023-04-11T07:09:10.619Z,1.50
2023-04-11T07:11:38.662Z,1.10
2023-04-11T07:14:06.020Z,1.13
2023-04-11T07:16:33.337Z,1.37
2023-04-11T07:19:00.215Z,1.20
2023-04-11T07:21:32.101Z,1.17
2023-04-11T07:24:00.654Z,1.30
2023-04-11T07:26:32.370Z,1.00
2023-04-11T07:29:00.141Z,0.70
2023-04-11T07:31:27.573Z,1.20
2023-04-11T07:33:54.904Z,1.10
2023-04-11T07:36:22.511Z,0.93
2023-04-11T07:38:49.466Z,1.00
2023-04-11T07:41:16.484Z,0.90
2023-04-11T07:43:43.675Z,0.80
2023-04-11T07:46:12.346Z,0.93
2023-04-11T07:48:39.864Z,1.10
2023-04-11T07:51:06.863Z,1.10
2023-04-11T07:53:34.157Z,0.97
2023-04-11T07:56:01.513Z,1.00
2023-04-11T07:58:28.665Z,0.90
2023-04-11T08:00:55.894Z,0.90
2023-04-11T08:03:23.812Z,0.90
2023-04-11T08:05:52.311Z,1.10
2023-04-11T08:08:19.342Z,1.00
2023-04-11T08:10:46.276Z,0.80
2023-04-11T08:13:13.610Z,0.93
2023-04-11T08:15:40.554Z,1.60
2023-04-11T08:18:07.481Z,1.00
2023-04-11T08:20:34.949Z,0.90
2023-04-11T08:23:06.275Z,1.00
2023-04-11T08:25:33.427Z,1.47
2023-04-11T08:28:00.628Z,0.83
2023-04-11T08:30:27.727Z,0.80
2023-04-11T08:32:54.749Z,0.90
2023-04-11T08:35:21.661Z,0.80
2023-04-11T08:37:49.566Z,0.63
2023-04-11T08:40:16.839Z,0.60
2023-04-11T08:42:44.577Z,0.73
2023-04-11T08:45:11.838Z,0.60
2023-04-11T08:47:38.804Z,0.50
2023-04-11T08:50:07.000Z,0.57
2023-04-11T08:52:34.471Z,0.70
2023-04-11T08:55:01.774Z,0.97
2023-04-11T08:57:33.383Z,0.80
2023-04-11T09:00:14.434Z,0.70
2023-04-11T09:03:05.812Z,0.70
2023-04-11T09:05:41.035Z,0.50
2023-04-11T09:08:13.493Z,0.40
2023-04-11T09:10:45.073Z,0.50
2023-04-11T09:13:24.290Z,0.50
2023-04-11T09:16:04.791Z,0.50
2023-04-11T09:18:37.204Z,0.50
2023-04-11T09:21:09.973Z,0.63
2023-04-11T09:23:37.689Z,0.70
2023-04-11T09:26:09.600Z,0.50
2023-04-11T09:28:53.462Z,1.03
2023-04-11T09:31:21.945Z,0.80
2023-04-11T09:33:56.390Z,0.40
2023-04-11T09:36:25.443Z,0.50
2023-04-11T09:38:52.771Z,0.30
2023-04-11T09:41:34.176Z,0.30
2023-04-11T09:44:02.024Z,0.30
2023-04-11T09:46:28.883Z,0.40
2023-04-11T09:48:56.674Z,0.50
2023-04-11T09:51:35.881Z,0.60
2023-04-11T09:54:04.954Z,0.50
2023-04-11T09:56:34.272Z,0.57
2023-04-11T09:59:02.949Z,0.50
2023-04-11T10:01:29.983Z,0.60
2023-04-11T10:03:57.716Z,0.50
2023-04-11T10:06:31.937Z,0.40
2023-04-11T10:09:11.477Z,0.50
2023-04-11T10:11:45.449Z,0.40
2023-04-11T10:14:38.448Z,0.40
2023-04-11T10:17:21.218Z,0.43
2023-04-11T10:19:56.569Z,0.73
2023-04-11T10:22:46.735Z,0.60
2023-04-11T10:25:17.529Z,0.43
2023-04-11T10:28:04.265Z,0.40
2023-04-11T10:31:02.045Z,0.30
2023-04-11T10:33:29.258Z,0.40
2023-04-11T10:36:00.031Z,0.30
2023-04-11T10:38:48.663Z,0.40
2023-04-11T10:41:33.968Z,0.30
2023-04-11T10:44:15.275Z,0.40
2023-04-11T10:46:55.860Z,0.50
2023-04-11T10:49:34.616Z,0.33
2023-04-11T10:52:18.357Z,0.60
2023-04-11T10:54:46.829Z,0.40
2023-04-11T10:57:14.593Z,0.67
2023-04-11T10:59:44.248Z,0.60
2023-04-11T11:02:12.120Z,0.50
2023-04-11T11:04:40.204Z,0.40
2023-04-11T11:07:14.143Z,0.60
2023-04-11T11:09:41.301Z,0.47
2023-04-11T11:12:14.915Z,0.50
2023-04-11T11:14:44.130Z,0.40
2023-04-11T11:17:13.109Z,0.60
2023-04-11T11:19:48.058Z,0.30
2023-04-11T11:22:25.505Z,0.57
2023-04-11T11:24:53.051Z,0.60
2023-04-11T11:27:22.636Z,0.67
2023-04-11T11:29:50.637Z,0.70
2023-04-11T11:32:24.197Z,0.70
2023-04-11T11:34:52.941Z,0.90
2023-04-11T11:37:21.165Z,0.60
2023-04-11T11:39:49.208Z,0.80
2023-04-11T11:42:16.596Z,0.70
2023-04-11T11:44:43.469Z,0.97
2023-04-11T11:47:16.824Z,0.83
2023-04-11T11:49:54.399Z,0.80
2023-04-11T11:52:34.662Z,0.60
2023-04-11T11:55:06.846Z,0.60
2023-04-11T11:57:34.551Z,0.70
2023-04-11T12:00:05.950Z,0.70
2023-04-11T12:02:36.155Z,0.50
2023-04-11T12:05:06.692Z,0.87
2023-04-11T12:07:36.786Z,0.70
2023-04-11T12:10:09.539Z,0.60
2023-04-11T12:12:41.976Z,0.70
2023-04-11T12:15:12.920Z,0.70
2023-04-11T12:17:40.403Z,0.60
2023-04-11T12:20:10.773Z,0.70
2023-04-11T12:22:38.521Z,0.60
2023-04-11T12:25:15.630Z,0.70
2023-04-11T12:27:44.190Z,0.80
2023-04-11T12:30:15.217Z,0.60
2023-04-11T12:32:43.391Z,0.60
2023-04-11T12:35:11.038Z,0.70
2023-04-11T12:37:38.436Z,0.80
2023-04-11T12:40:12.767Z,0.80
2023-04-11T12:45:12.124Z,0.67
2023-04-11T12:47:39.542Z,0.60
2023-04-11T12:50:07.463Z,0.90
2023-04-11T12:52:34.737Z,0.70
2023-04-11T12:55:02.117Z,0.80
2023-04-11T12:57:29.722Z,0.60
2023-04-11T12:59:56.874Z,0.70
2023-04-11T13:02:23.932Z,0.80
2023-04-11T13:04:55.031Z,1.10
2023-04-11T13:07:22.283Z,1.10
2023-04-11T13:09:49.862Z,1.57
2023-04-11T13:12:17.112Z,1.07
2023-04-11T13:14:44.109Z,1.00
2023-04-11T13:17:11.417Z,1.80
2023-04-11T13:19:38.433Z,1.10
2023-04-11T13:22:05.534Z,1.00
2023-04-11T13:24:32.944Z,0.77
2023-04-11T13:26:59.854Z,0.93
2023-04-11T13:29:27.082Z,0.80
2023-04-11T13:31:54.145Z,1.10
2023-04-11T13:34:21.210Z,0.77
2023-04-11T13:36:48.698Z,1.00
2023-04-11T13:39:16.090Z,1.07
2023-04-11T13:41:42.965Z,0.80
2023-04-11T13:44:10.057Z,0.70
2023-04-11T13:46:36.986Z,0.80
2023-04-11T13:49:06.168Z,0.80
2023-04-11T13:51:33.350Z,0.90
2023-04-11T13:54:01.149Z,1.10
2023-04-11T13:56:28.069Z,0.93
2023-04-11T13:58:55.330Z,0.97
2023-04-11T14:01:22.586Z,1.03
2023-04-11T14:03:50.255Z,0.80
2023-04-11T14:06:19.334Z,0.90
2023-04-11T14:08:48.559Z,0.70
2023-04-11T14:11:16.442Z,1.10
2023-04-11T14:13:43.443Z,0.90
2023-04-11T14:16:11.500Z,0.73
2023-04-11T14:18:38.519Z,0.73
2023-04-11T14:21:06.192Z,0.70
2023-04-11T14:23:33.687Z,0.83
2023-04-11T14:26:00.615Z,0.80
2023-04-11T14:28:27.665Z,0.80
2023-04-11T14:30:56.276Z,0.70
2023-04-11T14:33:23.455Z,0.83
2023-04-11T14:35:51.008Z,1.00
2023-04-11T14:38:18.227Z,0.83
2023-04-11T14:40:45.162Z,0.70
2023-04-11T14:43:12.326Z,0.80
2023-04-11T14:45:39.369Z,0.70
2023-04-11T14:48:06.884Z,0.70
2023-04-11T14:50:34.008Z,0.80
2023-04-11T14:53:01.257Z,0.60
2023-04-11T14:55:28.204Z,0.60
2023-04-11T14:57:56.052Z,0.90
2023-04-11T15:00:24.543Z,0.80
2023-04-11T15:02:56.318Z,0.80
2023-04-11T15:05:24.494Z,1.10
2023-04-11T15:07:53.097Z,1.40
2023-04-11T15:10:22.884Z,1.20
2023-04-11T15:12:50.348Z,0.70
2023-04-11T15:15:17.458Z,0.70
2023-04-11T15:17:49.358Z,1.00
2023-04-11T15:20:16.973Z,0.63
2023-04-11T15:22:45.896Z,0.60
2023-04-11T15:25:15.484Z,0.83
2023-04-11T15:27:42.830Z,0.90
2023-04-11T15:30:11.353Z,0.70
2023-04-11T15:32:43.678Z,0.60
2023-04-11T15:35:11.156Z,0.80
2023-04-11T15:37:38.128Z,0.53
2023-04-11T15:40:06.234Z,0.60
2023-04-11T15:42:35.448Z,0.70
2023-04-11T15:45:02.927Z,0.70
2023-04-11T15:47:30.431Z,0.57
2023-04-11T15:49:59.065Z,0.60
2023-04-11T15:52:26.450Z,0.70
2023-04-11T15:54:53.786Z,0.70
2023-04-11T15:57:21.038Z,0.80
2023-04-11T15:59:48.468Z,0.80
2023-04-11T16:02:15.691Z,0.80
2023-04-11T16:04:44.748Z,0.87
2023-04-11T16:07:14.070Z,1.00
2023-04-11T16:09:40.978Z,0.80
2023-04-11T16:12:07.872Z,1.00
2023-04-11T16:14:34.807Z,0.73
2023-04-11T16:17:01.663Z,0.80
2023-04-11T16:19:28.906Z,0.80
2023-04-11T16:21:55.875Z,0.87
2023-04-11T16:24:22.733Z,0.70
2023-04-11T16:26:49.677Z,0.83
2023-04-11T16:29:16.611Z,0.90
2023-04-11T16:31:43.647Z,1.00
2023-04-11T16:34:10.627Z,0.70
2023-04-11T16:36:37.804Z,0.87
2023-04-11T16:39:04.795Z,1.00
2023-04-11T16:41:36.294Z,1.13
2023-04-11T16:44:11.333Z,0.90
2023-04-11T16:46:39.481Z,0.80
2023-04-11T16:49:06.710Z,1.00
2023-04-11T16:51:36.444Z,0.83
2023-04-11T16:54:06.909Z,0.90
2023-04-11T16:56:33.852Z,0.80
2023-04-11T16:59:01.481Z,1.00
2023-04-11T17:01:28.522Z,0.90
2023-04-11T17:03:56.039Z,0.80
2023-04-11T17:06:23.818Z,1.00
2023-04-11T17:08:50.707Z,0.80
2023-04-11T17:11:17.582Z,1.63
2023-04-11T17:13:45.781Z,0.80
2023-04-11T17:16:13.787Z,0.90
2023-04-11T17:18:41.058Z,0.57
2023-04-11T17:21:08.133Z,0.77
2023-04-11T17:23:43.176Z,0.90
2023-04-11T17:26:12.050Z,0.90
2023-04-11T17:28:39.886Z,0.60
2023-04-11T17:31:14.710Z,0.70
2023-04-11T17:33:42.379Z,0.63
2023-04-11T17:36:11.349Z,0.70
2023-04-11T17:38:39.731Z,0.87
2023-04-11T17:41:14.578Z,0.63
2023-04-11T17:43:43.426Z,0.83
2023-04-11T17:46:10.628Z,0.60
2023-04-11T17:48:37.913Z,0.80
2023-04-11T17:51:06.902Z,0.90
2023-04-11T17:53:34.203Z,1.10
2023-04-11T17:56:05.898Z,0.80
2023-04-11T17:58:33.547Z,0.80
2023-04-11T18:01:00.568Z,0.80
2023-04-11T18:03:28.345Z,0.70
2023-04-11T18:05:56.460Z,0.80
2023-04-11T18:08:36.180Z,0.80
2023-04-11T18:11:10.117Z,0.80
2023-04-11T18:13:36.955Z,0.83
2023-04-11T18:16:04.344Z,0.80
2023-04-11T18:18:32.334Z,0.90
2023-04-11T18:21:05.059Z,0.90
2023-04-11T18:23:34.470Z,0.90
2023-04-11T18:26:01.653Z,0.80
2023-04-11T18:28:28.956Z,0.90
2023-04-11T18:30:56.320Z,1.17
2023-04-11T18:33:23.297Z,0.77
2023-04-11T18:35:50.205Z,0.70
2023-04-11T18:38:17.721Z,0.70
2023-04-11T18:40:44.592Z,0.80
2023-04-11T18:43:11.909Z,0.80
2023-04-11T18:45:39.417Z,0.90
2023-04-11T18:48:07.295Z,1.00
2023-04-11T18:50:38.827Z,0.70
2023-04-11T18:53:10.515Z,0.70
2023-04-11T18:55:40.643Z,0.93
2023-04-11T18:58:09.722Z,1.00
2023-04-11T19:00:39.192Z,1.00
2023-04-11T19:03:14.876Z,0.80
2023-04-11T19:05:43.979Z,0.90
2023-04-11T19:08:11.444Z,0.80
2023-04-11T19:10:38.442Z,1.00
2023-04-11T19:13:06.254Z,0.93
2023-04-11T19:15:33.234Z,1.10
2023-04-11T19:18:00.774Z,1.00
2023-04-11T19:20:29.455Z,0.83
2023-04-11T19:22:57.046Z,1.00
2023-04-11T19:25:24.508Z,0.90
2023-04-11T19:27:51.673Z,0.97
2023-04-11T19:30:18.737Z,0.63
2023-04-11T19:32:47.672Z,0.90
2023-04-11T19:35:15.224Z,0.87
2023-04-11T19:37:42.872Z,1.03
2023-04-11T19:40:16.736Z,0.80
2023-04-11T19:42:44.895Z,0.80
2023-04-11T19:45:12.319Z,0.90
2023-04-11T19:47:40.813Z,1.10
2023-04-11T19:50:13.318Z,0.80
2023-04-11T19:52:41.979Z,0.90
2023-04-11T19:55:10.737Z,0.70
2023-04-11T19:57:41.249Z,0.80
2023-04-11T20:00:17.563Z,0.73
2023-04-11T20:02:46.595Z,0.80
2023-04-11T20:05:16.052Z,0.80
2023-04-11T20:07:44.149Z,1.10
2023-04-11T20:10:12.296Z,0.63
2023-04-11T20:12:39.613Z,0.70
2023-04-11T20:15:08.060Z,0.90
2023-04-11T20:17:35.701Z,0.93
2023-04-11T20:20:06.617Z,0.70
2023-04-11T20:22:33.876Z,0.73
2023-04-11T20:25:00.981Z,0.70
2023-04-11T20:27:28.268Z,0.70
2023-04-11T20:29:56.857Z,0.80
2023-04-11T20:32:24.483Z,0.70
2023-04-11T20:34:51.445Z,0.80
2023-04-11T20:37:19.595Z,0.87
2023-04-11T20:39:47.103Z,0.67
2023-04-11T20:42:14.079Z,0.70
2023-04-11T20:44:41.753Z,0.60
2023-04-11T20:47:09.183Z,0.83
2023-04-11T20:49:36.317Z,0.90
2023-04-11T20:52:03.880Z,0.97
2023-04-11T20:54:30.851Z,0.70
2023-04-11T20:56:58.176Z,0.70
2023-04-11T20:59:26.691Z,0.70
2023-04-11T21:01:53.822Z,0.80
2023-04-11T21:04:22.111Z,1.00
2023-04-11T21:06:50.098Z,0.70
2023-04-11T21:09:17.669Z,0.80
2023-04-11T21:11:44.686Z,0.90
2023-04-11T21:14:11.639Z,0.60
2023-04-11T21:16:38.673Z,0.80
2023-04-11T21:19:06.013Z,0.70
2023-04-11T21:21:33.519Z,0.77
2023-04-11T21:24:01.429Z,0.67
2023-04-11T21:26:28.311Z,0.80
2023-04-11T21:28:55.248Z,0.77
2023-04-11T21:31:22.346Z,0.70
2023-04-11T21:33:49.255Z,0.80
2023-04-11T21:36:16.236Z,0.90
2023-04-11T21:38:43.086Z,0.90
2023-04-11T21:41:09.951Z,0.77
2023-04-11T21:43:37.073Z,0.90
2023-04-11T21:46:04.114Z,0.70
2023-04-11T21:48:31.189Z,0.87
2023-04-11T21:50:58.154Z,0.83
2023-04-11T21:53:25.082Z,0.80
2023-04-11T21:55:52.067Z,0.80
2023-04-11T21:58:29.201Z,1.00
2023-04-11T22:00:56.980Z,1.00
2023-04-11T22:03:24.351Z,0.83
2023-04-11T22:05:52.471Z,0.70
2023-04-11T22:08:22.823Z,0.90
2023-04-11T22:10:50.818Z,0.70
2023-04-11T22:13:19.517Z,0.90
2023-04-11T22:15:48.838Z,0.83
2023-04-11T22:18:18.077Z,0.60
2023-04-11T22:20:48.685Z,0.63
2023-04-11T22:23:17.439Z,0.70
2023-04-11T22:25:44.622Z,0.60
2023-04-11T22:28:18.322Z,0.70
2023-04-11T22:30:48.434Z,0.60
2023-04-11T22:33:15.600Z,0.87
2023-04-11T22:35:47.751Z,1.10
2023-04-11T22:38:15.906Z,0.80
2023-04-11T22:40:43.302Z,0.80
2023-04-11T22:43:10.794Z,0.53
2023-04-11T22:45:37.900Z,0.90
2023-04-11T22:48:06.163Z,0.70
2023-04-11T22:50:38.043Z,0.80
2023-04-11T22:53:05.549Z,0.60
2023-04-11T22:55:35.670Z,0.87
2023-04-11T22:58:03.454Z,0.50
2023-04-11T23:00:30.598Z,0.90
2023-04-11T23:02:59.757Z,0.90
2023-04-11T23:05:27.074Z,0.80
2023-04-11T23:07:54.247Z,0.90
2023-04-11T23:10:21.387Z,0.70
2023-04-11T23:12:49.417Z,0.80
2023-04-11T23:15:17.492Z,0.90
2023-04-11T23:17:45.006Z,0.80
2023-04-11T23:20:15.495Z,1.00
2023-04-11T23:22:42.541Z,0.60
2023-04-11T23:25:12.732Z,0.73
2023-04-11T23:27:39.965Z,0.80
2023-04-11T23:30:07.774Z,0.80
2023-04-11T23:32:34.971Z,0.80
2023-04-11T23:35:03.172Z,0.90
2023-04-11T23:37:31.739Z,0.80
2023-04-11T23:39:59.382Z,0.83
2023-04-11T23:42:26.360Z,0.87
2023-04-11T23:44:53.430Z,0.70
2023-04-11T23:47:20.461Z,0.70
2023-04-11T23:49:47.369Z,0.70
2023-04-11T23:52:14.284Z,0.70
2023-04-11T23:54:41.749Z,0.83
2023-04-11T23:57:08.936Z,0.70
2023-04-11T23:59:36.293Z,0.80
